sensor_id;sensor_type;location;lat;lon;timestamp;pressure;altitude;pressure_sealevel;temperature;humidity
9893;BME280;4985;49.092;8.542;2023-04-19T00:01:56;99926.41;;;16.55;51.85
9893;BME280;4985;49.092;8.542;2023-04-19T00:04:24;99931.72;;;16.55;51.84
9893;BME280;4985;49.092;8.542;2023-04-19T00:06:51;99932.56;;;16.56;51.84
9893;BME280;4985;49.092;8.542;2023-04-19T00:09:18;99932.75;;;16.54;51.84
9893;BME280;4985;49.092;8.542;2023-04-19T00:11:44;99939.03;;;16.53;51.86
9893;BME280;4985;49.092;8.542;2023-04-19T00:14:11;99934.56;;;16.54;51.84
9893;BME280;4985;49.092;8.542;2023-04-19T00:16:37;99939.91;;;16.54;51.84
9893;BME280;4985;49.092;8.542;2023-04-19T00:19:04;99936.22;;;16.55;51.83
9893;BME280;4985;49.092;8.542;2023-04-19T00:21:32;99936.22;;;16.55;51.82
9893;BME280;4985;49.092;8.542;2023-04-19T00:24:01;99934.38;;;16.55;51.81
9893;BME280;4985;49.092;8.542;2023-04-19T00:26:28;99936.22;;;16.55;51.81
9893;BME280;4985;49.092;8.542;2023-04-19T00:28:54;99938.88;;;16.55;51.80
9893;BME280;4985;49.092;8.542;2023-04-19T00:31:21;99930.91;;;16.55;51.80
9893;BME280;4985;49.092;8.542;2023-04-19T00:33:47;99930.91;;;16.55;51.80
9893;BME280;4985;49.092;8.542;2023-04-19T00:36:14;99928.41;;;16.53;51.82
9893;BME280;4985;49.092;8.542;2023-04-19T00:38:42;99930.09;;;16.54;51.81
9893;BME280;4985;49.092;8.542;2023-04-19T00:41:08;99925.59;;;16.55;51.81
9893;BME280;4985;49.092;8.542;2023-04-19T00:43:35;99925.59;;;16.55;51.80
9893;BME280;4985;49.092;8.542;2023-04-19T00:46:01;99926.59;;;16.54;51.81
9893;BME280;4985;49.092;8.542;2023-04-19T00:48:28;99928.41;;;16.53;51.82
9893;BME280;4985;49.092;8.542;2023-04-19T00:50:56;99928.41;;;16.53;51.83
9893;BME280;4985;49.092;8.542;2023-04-19T00:53:22;99928.41;;;16.53;51.82
9893;BME280;4985;49.092;8.542;2023-04-19T00:55:50;99922.09;;;16.54;51.82
9893;BME280;4985;49.092;8.542;2023-04-19T00:58:17;99924.94;;;16.53;51.83
9893;BME280;4985;49.092;8.542;2023-04-19T01:00:44;99922.25;;;16.53;51.82
9893;BME280;4985;49.092;8.542;2023-04-19T01:03:10;99923.94;;;16.54;51.81
9893;BME280;4985;49.092;8.542;2023-04-19T01:05:38;99927.59;;;16.53;51.84
9893;BME280;4985;49.092;8.542;2023-04-19T01:08:05;99915.13;;;16.53;51.82
9893;BME280;4985;49.092;8.542;2023-04-19T01:10:32;99915.31;;;16.52;51.82
9893;BME280;4985;49.092;8.542;2023-04-19T01:13:00;99908.97;;;16.53;51.82
9893;BME280;4985;49.092;8.542;2023-04-19T01:15:27;99914.28;;;16.53;51.84
9893;BME280;4985;49.092;8.542;2023-04-19T01:17:53;99913.47;;;16.52;51.82
9893;BME280;4985;49.092;8.542;2023-04-19T01:20:20;99914.28;;;16.53;51.83
9893;BME280;4985;49.092;8.542;2023-04-19T01:22:48;99914.28;;;16.53;51.83
9893;BME280;4985;49.092;8.542;2023-04-19T01:25:15;99907.34;;;16.52;51.84
9893;BME280;4985;49.092;8.542;2023-04-19T01:27:41;99907.34;;;16.52;51.82
9893;BME280;4985;49.092;8.542;2023-04-19T01:30:09;99908.16;;;16.52;51.82
9893;BME280;4985;49.092;8.542;2023-04-19T01:32:36;99903.03;;;16.51;51.84
9893;BME280;4985;49.092;8.542;2023-04-19T01:35:02;99900.38;;;16.51;51.84
9893;BME280;4985;49.092;8.542;2023-04-19T01:37:29;99897.72;;;16.51;51.83
9893;BME280;4985;49.092;8.542;2023-04-19T01:39:57;99900.38;;;16.51;51.83
9893;BME280;4985;49.092;8.542;2023-04-19T01:42:24;99893.22;;;16.51;51.83
9893;BME280;4985;49.092;8.542;2023-04-19T01:44:50;99896.91;;;16.50;51.84
9893;BME280;4985;49.092;8.542;2023-04-19T01:47:17;99900.38;;;16.51;51.83
9893;BME280;4985;49.092;8.542;2023-04-19T01:49:43;99887.09;;;16.51;51.83
9893;BME280;4985;49.092;8.542;2023-04-19T01:52:10;99887.09;;;16.51;51.83
9893;BME280;4985;49.092;8.542;2023-04-19T01:54:36;99892.41;;;16.51;51.83
9893;BME280;4985;49.092;8.542;2023-04-19T01:57:04;99880.13;;;16.50;51.82
9893;BME280;4985;49.092;8.542;2023-04-19T01:59:31;99881.78;;;16.51;51.82
9893;BME280;4985;49.092;8.542;2023-04-19T02:01:58;99872.97;;;16.50;51.82
9893;BME280;4985;49.092;8.542;2023-04-19T02:04:24;99874.81;;;16.50;51.82
9893;BME280;4985;49.092;8.542;2023-04-19T02:06:51;99876.66;;;16.49;51.82
9893;BME280;4985;49.092;8.542;2023-04-19T02:09:17;99876.44;;;16.51;51.83
9893;BME280;4985;49.092;8.542;2023-04-19T02:11:44;99865.19;;;16.49;51.82
9893;BME280;4985;49.092;8.542;2023-04-19T02:14:12;99874.00;;;16.49;51.83
9893;BME280;4985;49.092;8.542;2023-04-19T02:16:38;99874.00;;;16.49;51.83
9893;BME280;4985;49.092;8.542;2023-04-19T02:19:05;99861.53;;;16.50;51.82
9893;BME280;4985;49.092;8.542;2023-04-19T02:21:31;99857.22;;;16.49;51.83
9893;BME280;4985;49.092;8.542;2023-04-19T02:23:58;99858.88;;;16.50;51.83
9893;BME280;4985;49.092;8.542;2023-04-19T02:26:25;99867.84;;;16.49;51.83
9893;BME280;4985;49.092;8.542;2023-04-19T02:28:52;99853.75;;;16.48;51.82
9893;BME280;4985;49.092;8.542;2023-04-19T02:31:19;99847.59;;;16.48;51.84
9893;BME280;4985;49.092;8.542;2023-04-19T02:33:46;99847.59;;;16.48;51.82
9893;BME280;4985;49.092;8.542;2023-04-19T02:36:13;99848.63;;;16.47;51.84
9893;BME280;4985;49.092;8.542;2023-04-19T02:38:39;99843.31;;;16.47;51.83
9893;BME280;4985;49.092;8.542;2023-04-19T02:41:06;99852.09;;;16.47;51.83
9893;BME280;4985;49.092;8.542;2023-04-19T02:43:32;99844.94;;;16.48;51.82
9893;BME280;4985;49.092;8.542;2023-04-19T02:46:00;99836.16;;;16.47;51.82
9893;BME280;4985;49.092;8.542;2023-04-19T02:48:28;99836.16;;;16.47;51.82
9893;BME280;4985;49.092;8.542;2023-04-19T02:50:54;99845.78;;;16.48;51.82
9893;BME280;4985;49.092;8.542;2023-04-19T02:53:21;99839.63;;;16.48;51.80
9893;BME280;4985;49.092;8.542;2023-04-19T02:55:47;99841.28;;;16.49;51.81
9893;BME280;4985;49.092;8.542;2023-04-19T02:58:14;99833.50;;;16.47;51.79
9893;BME280;4985;49.092;8.542;2023-04-19T03:00:41;99841.28;;;16.49;51.80
9893;BME280;4985;49.092;8.542;2023-04-19T03:03:07;99835.97;;;16.49;51.80
9893;BME280;4985;49.092;8.542;2023-04-19T03:05:35;99835.13;;;16.48;51.79
9893;BME280;4985;49.092;8.542;2023-04-19T03:08:02;99835.97;;;16.49;51.80
9893;BME280;4985;49.092;8.542;2023-04-19T03:10:28;99832.66;;;16.47;51.81
9893;BME280;4985;49.092;8.542;2023-04-19T03:12:55;99831.66;;;16.48;51.81
9893;BME280;4985;49.092;8.542;2023-04-19T03:15:22;99830.00;;;16.47;51.81
9893;BME280;4985;49.092;8.542;2023-04-19T03:17:48;99835.34;;;16.47;51.80
9893;BME280;4985;49.092;8.542;2023-04-19T03:20:15;99827.34;;;16.47;51.81
9893;BME280;4985;49.092;8.542;2023-04-19T03:22:43;99831.03;;;16.46;51.81
9893;BME280;4985;49.092;8.542;2023-04-19T03:25:10;99817.75;;;16.46;51.81
9893;BME280;4985;49.092;8.542;2023-04-19T03:27:37;99825.72;;;16.46;51.82
9893;BME280;4985;49.092;8.542;2023-04-19T03:30:05;99825.72;;;16.46;51.81
9893;BME280;4985;49.092;8.542;2023-04-19T03:32:32;99828.38;;;16.46;51.82
9893;BME280;4985;49.092;8.542;2023-04-19T03:34:58;99824.88;;;16.45;51.82
9893;BME280;4985;49.092;8.542;2023-04-19T03:37:25;99824.06;;;16.45;51.82
9893;BME280;4985;49.092;8.542;2023-04-19T03:39:53;99818.75;;;16.45;51.82
9893;BME280;4985;49.092;8.542;2023-04-19T03:42:20;99821.41;;;16.45;51.82
9893;BME280;4985;49.092;8.542;2023-04-19T03:44:46;99816.09;;;16.45;51.81
9893;BME280;4985;49.092;8.542;2023-04-19T03:47:13;99819.56;;;16.45;51.83
9893;BME280;4985;49.092;8.542;2023-04-19T03:49:39;99816.09;;;16.45;51.81
9893;BME280;4985;49.092;8.542;2023-04-19T03:52:06;99821.41;;;16.45;51.82
9893;BME280;4985;49.092;8.542;2023-04-19T03:54:32;99811.59;;;16.45;51.82
9893;BME280;4985;49.092;8.542;2023-04-19T03:57:00;99811.78;;;16.44;51.82
9893;BME280;4985;49.092;8.542;2023-04-19T03:59:27;99811.78;;;16.44;51.82
9893;BME280;4985;49.092;8.542;2023-04-19T04:01:54;99812.63;;;16.44;51.83
9893;BME280;4985;49.092;8.542;2023-04-19T04:04:20;99819.78;;;16.44;51.84
9893;BME280;4985;49.092;8.542;2023-04-19T04:06:47;99811.13;;;16.42;51.84
9893;BME280;4985;49.092;8.542;2023-04-19T04:09:13;99817.31;;;16.42;51.84
9893;BME280;4985;49.092;8.542;2023-04-19T04:11:40;99812.00;;;16.42;51.84
9893;BME280;4985;49.092;8.542;2023-04-19T04:14:08;99814.66;;;16.42;51.84
9893;BME280;4985;49.092;8.542;2023-04-19T04:16:34;99810.16;;;16.43;51.83
9893;BME280;4985;49.092;8.542;2023-04-19T04:19:01;99818.13;;;16.43;51.83
9893;BME280;4985;49.092;8.542;2023-04-19T04:21:27;99809.34;;;16.42;51.83
9893;BME280;4985;49.092;8.542;2023-04-19T04:23:54;99814.66;;;16.42;51.82
9893;BME280;4985;49.092;8.542;2023-04-19T04:26:21;99822.44;;;16.44;51.83
9893;BME280;4985;49.092;8.542;2023-04-19T04:28:49;99825.28;;;16.42;51.82
9893;BME280;4985;49.092;8.542;2023-04-19T04:31:17;99816.28;;;16.43;51.82
9893;BME280;4985;49.092;8.542;2023-04-19T04:33:45;99824.41;;;16.42;51.83
9893;BME280;4985;49.092;8.542;2023-04-19T04:36:11;99817.31;;;16.42;51.83
9893;BME280;4985;49.092;8.542;2023-04-19T04:38:38;99821.75;;;16.42;51.82
9893;BME280;4985;49.092;8.542;2023-04-19T04:41:05;99818.28;;;16.41;51.82
9893;BME280;4985;49.092;8.542;2023-04-19T04:43:33;99819.97;;;16.42;51.82
9893;BME280;4985;49.092;8.542;2023-04-19T04:45:59;99814.66;;;16.42;51.83
9893;BME280;4985;49.092;8.542;2023-04-19T04:48:27;99812.16;;;16.41;51.83
9893;BME280;4985;49.092;8.542;2023-04-19T04:50:55;99815.63;;;16.41;51.83
9893;BME280;4985;49.092;8.542;2023-04-19T04:53:24;99820.94;;;16.41;51.82
9893;BME280;4985;49.092;8.542;2023-04-19T04:55:51;99819.31;;;16.40;51.83
9893;BME280;4985;49.092;8.542;2023-04-19T04:58:17;99822.78;;;16.41;51.83
9893;BME280;4985;49.092;8.542;2023-04-19T05:00:44;99819.31;;;16.40;51.83
9893;BME280;4985;49.092;8.542;2023-04-19T05:03:12;99825.44;;;16.41;51.83
9893;BME280;4985;49.092;8.542;2023-04-19T05:05:41;99821.13;;;16.40;51.83
9893;BME280;4985;49.092;8.542;2023-04-19T05:08:08;99817.47;;;16.41;51.83
9893;BME280;4985;49.092;8.542;2023-04-19T05:10:34;99823.78;;;16.40;51.82
9893;BME280;4985;49.092;8.542;2023-04-19T05:13:01;99819.31;;;16.40;51.83
9893;BME280;4985;49.092;8.542;2023-04-19T05:15:27;99828.28;;;16.39;51.84
9893;BME280;4985;49.092;8.542;2023-04-19T05:17:54;99833.59;;;16.39;51.83
9893;BME280;4985;49.092;8.542;2023-04-19T05:20:20;99823.78;;;16.40;51.83
9893;BME280;4985;49.092;8.542;2023-04-19T05:22:48;99829.94;;;16.40;51.83
9893;BME280;4985;49.092;8.542;2023-04-19T05:25:15;99837.91;;;16.40;51.83
9893;BME280;4985;49.092;8.542;2023-04-19T05:27:41;99834.41;;;16.40;51.83
9893;BME280;4985;49.092;8.542;2023-04-19T05:30:08;99840.56;;;16.40;51.82
9893;BME280;4985;49.092;8.542;2023-04-19T05:32:35;99835.44;;;16.39;51.81
9893;BME280;4985;49.092;8.542;2023-04-19T05:35:01;99838.72;;;16.41;51.82
9893;BME280;4985;49.092;8.542;2023-04-19T05:37:28;99834.41;;;16.40;51.82
9893;BME280;4985;49.092;8.542;2023-04-19T05:39:56;99833.59;;;16.39;51.82
9893;BME280;4985;49.092;8.542;2023-04-19T05:42:23;99831.75;;;16.40;51.82
9893;BME280;4985;49.092;8.542;2023-04-19T05:44:50;99839.72;;;16.40;51.82
9893;BME280;4985;49.092;8.542;2023-04-19T05:47:16;99835.44;;;16.39;51.82
9893;BME280;4985;49.092;8.542;2023-04-19T05:49:43;99837.91;;;16.40;51.83
9893;BME280;4985;49.092;8.542;2023-04-19T05:52:09;99838.09;;;16.39;51.82
9893;BME280;4985;49.092;8.542;2023-04-19T05:54:36;99839.72;;;16.40;51.82
9893;BME280;4985;49.092;8.542;2023-04-19T05:57:04;99847.72;;;16.40;51.82
9893;BME280;4985;49.092;8.542;2023-04-19T05:59:31;99850.38;;;16.40;51.82
9893;BME280;4985;49.092;8.542;2023-04-19T06:01:58;99851.38;;;16.39;51.83
9893;BME280;4985;49.092;8.542;2023-04-19T06:04:25;99846.06;;;16.39;51.84
9893;BME280;4985;49.092;8.542;2023-04-19T06:06:52;99846.06;;;16.39;51.85
9893;BME280;4985;49.092;8.542;2023-04-19T06:09:18;99843.41;;;16.39;51.84
9893;BME280;4985;49.092;8.542;2023-04-19T06:11:45;99839.94;;;16.38;51.85
9893;BME280;4985;49.092;8.542;2023-04-19T06:14:13;99839.94;;;16.38;51.85
9893;BME280;4985;49.092;8.542;2023-04-19T06:16:40;99844.41;;;16.38;51.86
9893;BME280;4985;49.092;8.542;2023-04-19T06:19:06;99836.44;;;16.38;51.88
9893;BME280;4985;49.092;8.542;2023-04-19T06:21:33;99833.78;;;16.38;51.88
9893;BME280;4985;49.092;8.542;2023-04-19T06:24:00;99837.47;;;16.37;51.89
9893;BME280;4985;49.092;8.542;2023-04-19T06:26:27;99827.41;;;16.32;51.90
9893;BME280;4985;49.092;8.542;2023-04-19T06:28:53;99837.47;;;16.37;51.90
9893;BME280;4985;49.092;8.542;2023-04-19T06:31:21;99832.16;;;16.37;51.90
9893;BME280;4985;49.092;8.542;2023-04-19T06:33:48;99832.16;;;16.37;51.89
9893;BME280;4985;49.092;8.542;2023-04-19T06:36:15;99834.81;;;16.37;51.90
9893;BME280;4985;49.092;8.542;2023-04-19T06:38:41;99845.44;;;16.37;51.90
9893;BME280;4985;49.092;8.542;2023-04-19T06:41:08;99837.47;;;16.37;51.90
9893;BME280;4985;49.092;8.542;2023-04-19T06:43:35;99846.25;;;16.37;51.91
9893;BME280;4985;49.092;8.542;2023-04-19T06:46:03;99837.47;;;16.37;51.92
9893;BME280;4985;49.092;8.542;2023-04-19T06:48:32;99834.81;;;16.37;51.91
9893;BME280;4985;49.092;8.542;2023-04-19T06:50:58;99834.81;;;16.37;51.92
9893;BME280;4985;49.092;8.542;2023-04-19T06:53:25;99837.47;;;16.37;51.92
9893;BME280;4985;49.092;8.542;2023-04-19T06:55:57;99828.47;;;16.38;51.91
9893;BME280;4985;49.092;8.542;2023-04-19T06:58:25;99836.62;;;16.36;51.91
9893;BME280;4985;49.092;8.542;2023-04-19T07:00:51;99840.13;;;16.37;51.92
9893;BME280;4985;49.092;8.542;2023-04-19T07:03:18;99837.47;;;16.37;51.91
9893;BME280;4985;49.092;8.542;2023-04-19T07:05:46;99833.78;;;16.38;51.92
9893;BME280;4985;49.092;8.542;2023-04-19T07:08:13;99832.16;;;16.37;51.91
9893;BME280;4985;49.092;8.542;2023-04-19T07:10:39;99827.84;;;16.36;51.92
9893;BME280;4985;49.092;8.542;2023-04-19T07:13:08;99825.81;;;16.38;51.91
9893;BME280;4985;49.092;8.542;2023-04-19T07:15:34;99823.16;;;16.38;51.91
9893;BME280;4985;49.092;8.542;2023-04-19T07:18:01;99821.53;;;16.37;51.91
9893;BME280;4985;49.092;8.542;2023-04-19T07:20:28;99817.84;;;16.38;51.91
9893;BME280;4985;49.092;8.542;2023-04-19T07:22:57;99820.50;;;16.38;51.91
9893;BME280;4985;49.092;8.542;2023-04-19T07:25:23;99822.34;;;16.37;51.91
9893;BME280;4985;49.092;8.542;2023-04-19T07:27:51;99820.50;;;16.38;51.93
9893;BME280;4985;49.092;8.542;2023-04-19T07:30:18;99816.22;;;16.37;51.97
9893;BME280;4985;49.092;8.542;2023-04-19T07:32:45;99817.03;;;16.37;51.96
9893;BME280;4985;49.092;8.542;2023-04-19T07:35:12;99809.25;;;16.36;51.95
9893;BME280;4985;49.092;8.542;2023-04-19T07:37:38;99809.87;;;16.38;51.96
9893;BME280;4985;49.092;8.542;2023-04-19T07:40:08;99808.22;;;16.37;51.97
9893;BME280;4985;49.092;8.542;2023-04-19T07:42:34;99816.22;;;16.37;51.98
9893;BME280;4985;49.092;8.542;2023-04-19T07:45:01;99810.06;;;16.36;52.00
9893;BME280;4985;49.092;8.542;2023-04-19T07:47:28;99813.56;;;16.37;52.00
9893;BME280;4985;49.092;8.542;2023-04-19T07:49:55;99805.56;;;16.37;52.00
9893;BME280;4985;49.092;8.542;2023-04-19T07:52:22;99801.09;;;16.37;51.99
9893;BME280;4985;49.092;8.542;2023-04-19T07:54:48;99804.75;;;16.36;52.01
9893;BME280;4985;49.092;8.542;2023-04-19T07:57:16;99807.22;;;16.38;52.02
9893;BME280;4985;49.092;8.542;2023-04-19T07:59:43;99807.22;;;16.38;52.00
9893;BME280;4985;49.092;8.542;2023-04-19T08:02:09;99799.06;;;16.39;52.00
9893;BME280;4985;49.092;8.542;2023-04-19T08:04:36;99798.22;;;16.39;52.01
9893;BME280;4985;49.092;8.542;2023-04-19T08:07:03;99806.22;;;16.39;52.01
9893;BME280;4985;49.092;8.542;2023-04-19T08:09:32;99799.06;;;16.39;52.01
9893;BME280;4985;49.092;8.542;2023-04-19T08:11:59;99792.28;;;16.37;51.98
9893;BME280;4985;49.092;8.542;2023-04-19T08:14:27;99794.38;;;16.41;51.97
9893;BME280;4985;49.092;8.542;2023-04-19T08:16:53;99803.16;;;16.42;51.96
9893;BME280;4985;49.092;8.542;2023-04-19T08:19:20;99801.38;;;16.42;51.96
9893;BME280;4985;49.092;8.542;2023-04-19T08:21:46;99799.53;;;16.43;51.95
9893;BME280;4985;49.092;8.542;2023-04-19T08:24:13;99793.38;;;16.42;51.96
9893;BME280;4985;49.092;8.542;2023-04-19T08:26:40;99795.19;;;16.42;51.98
9893;BME280;4985;49.092;8.542;2023-04-19T08:29:06;99795.03;;;16.43;51.99
9893;BME280;4985;49.092;8.542;2023-04-19T08:31:35;99793.38;;;16.42;52.00
9893;BME280;4985;49.092;8.542;2023-04-19T08:34:01;99791.56;;;16.43;52.00
9893;BME280;4985;49.092;8.542;2023-04-19T08:36:28;99800.97;;;16.45;52.00
9893;BME280;4985;49.092;8.542;2023-04-19T08:38:54;99795.84;;;16.44;52.01
9893;BME280;4985;49.092;8.542;2023-04-19T08:41:21;99799.34;;;16.44;52.02
9893;BME280;4985;49.092;8.542;2023-04-19T08:43:50;99805.47;;;16.45;52.03
9893;BME280;4985;49.092;8.542;2023-04-19T08:46:17;99806.47;;;16.44;52.03
9893;BME280;4985;49.092;8.542;2023-04-19T08:48:45;99802.81;;;16.45;52.04
9893;BME280;4985;49.092;8.542;2023-04-19T08:51:12;99803.63;;;16.45;52.04
9893;BME280;4985;49.092;8.542;2023-04-19T08:53:40;99800.16;;;16.45;52.05
9893;BME280;4985;49.092;8.542;2023-04-19T08:56:06;99802.81;;;16.45;52.05
9893;BME280;4985;49.092;8.542;2023-04-19T08:58:33;99794.66;;;16.46;52.06
9893;BME280;4985;49.092;8.542;2023-04-19T09:01:02;99795.47;;;16.47;52.05
9893;BME280;4985;49.092;8.542;2023-04-19T09:03:29;99789.13;;;16.48;52.04
9893;BME280;4985;49.092;8.542;2023-04-19T09:05:59;99790.16;;;16.47;52.06
9893;BME280;4985;49.092;8.542;2023-04-19T09:08:27;99790.16;;;16.47;52.07
9893;BME280;4985;49.092;8.542;2023-04-19T09:10:56;99790.16;;;16.47;52.10
9893;BME280;4985;49.092;8.542;2023-04-19T09:13:23;99786.88;;;16.45;52.10
9893;BME280;4985;49.092;8.542;2023-04-19T09:15:50;99778.50;;;16.48;52.11
9893;BME280;4985;49.092;8.542;2023-04-19T09:18:18;99781.16;;;16.48;52.11
9893;BME280;4985;49.092;8.542;2023-04-19T09:20:45;99776.69;;;16.48;52.12
9893;BME280;4985;49.092;8.542;2023-04-19T09:23:14;99777.50;;;16.49;52.14
9893;BME280;4985;49.092;8.542;2023-04-19T09:25:51;99776.69;;;16.48;52.12
9893;BME280;4985;49.092;8.542;2023-04-19T09:28:18;99774.84;;;16.49;52.12
9893;BME280;4985;49.092;8.542;2023-04-19T09:30:44;99772.00;;;16.50;52.11
9893;BME280;4985;49.092;8.542;2023-04-19T09:33:12;99769.31;;;16.50;52.09
9893;BME280;4985;49.092;8.542;2023-04-19T09:35:40;99764.84;;;16.51;52.10
9893;BME280;4985;49.092;8.542;2023-04-19T09:38:06;99752.56;;;16.50;52.10
9893;BME280;4985;49.092;8.542;2023-04-19T09:40:35;99752.38;;;16.51;52.11
9893;BME280;4985;49.092;8.542;2023-04-19T09:43:02;99750.53;;;16.52;52.11
9893;BME280;4985;49.092;8.542;2023-04-19T09:45:38;99744.41;;;16.51;52.13
9893;BME280;4985;49.092;8.542;2023-04-19T09:48:06;99737.62;;;16.49;52.14
9893;BME280;4985;49.092;8.542;2023-04-19T09:50:33;99745.22;;;16.52;52.16
9893;BME280;4985;49.092;8.542;2023-04-19T09:53:01;99737.25;;;16.52;52.17
9893;BME280;4985;49.092;8.542;2023-04-19T09:55:28;99736.22;;;16.53;52.19
9893;BME280;4985;49.092;8.542;2023-04-19T09:57:57;99725.59;;;16.53;52.22
9893;BME280;4985;49.092;8.542;2023-04-19T10:00:23;99725.59;;;16.53;52.24
9893;BME280;4985;49.092;8.542;2023-04-19T10:02:51;99733.41;;;16.54;52.25
9893;BME280;4985;49.092;8.542;2023-04-19T10:05:22;99733.41;;;16.54;52.25
9893;BME280;4985;49.092;8.542;2023-04-19T10:07:49;99722.31;;;16.51;52.23
9893;BME280;4985;49.092;8.542;2023-04-19T10:10:17;99719.94;;;16.56;52.21
9893;BME280;4985;49.092;8.542;2023-04-19T10:12:47;99721.56;;;16.57;52.21
9893;BME280;4985;49.092;8.542;2023-04-19T10:15:15;99713.59;;;16.57;52.20
9893;BME280;4985;49.092;8.542;2023-04-19T10:17:42;99721.56;;;16.57;52.20
9893;BME280;4985;49.092;8.542;2023-04-19T10:20:16;99716.06;;;16.58;52.20
9893;BME280;4985;49.092;8.542;2023-04-19T10:22:44;99716.25;;;16.57;52.19
9893;BME280;4985;49.092;8.542;2023-04-19T10:25:12;99714.22;;;16.59;52.18
9893;BME280;4985;49.092;8.542;2023-04-19T10:27:40;99709.72;;;16.59;52.19
9893;BME280;4985;49.092;8.542;2023-04-19T10:30:17;99711.37;;;16.60;52.17
9893;BME280;4985;49.092;8.542;2023-04-19T10:32:46;99703.59;;;16.59;52.17
9893;BME280;4985;49.092;8.542;2023-04-19T10:35:18;99694.59;;;16.60;52.18
9893;BME280;4985;49.092;8.542;2023-04-19T10:38:04;99700.72;;;16.60;52.18
9893;BME280;4985;49.092;8.542;2023-04-19T10:40:56;99702.38;;;16.62;52.17
9893;BME280;4985;49.092;8.542;2023-04-19T10:43:25;99693.38;;;16.63;52.15
9893;BME280;4985;49.092;8.542;2023-04-19T10:45:54;99690.09;;;16.60;52.13
9893;BME280;4985;49.092;8.542;2023-04-19T10:48:34;99694.84;;;16.65;52.13
9893;BME280;4985;49.092;8.542;2023-04-19T10:51:03;99696.66;;;16.65;52.12
9893;BME280;4985;49.092;8.542;2023-04-19T10:54:02;99679.91;;;16.64;52.11
9893;BME280;4985;49.092;8.542;2023-04-19T10:56:57;99682.38;;;16.66;52.10
9893;BME280;4985;49.092;8.542;2023-04-19T10:59:25;99674.41;;;16.66;52.07
9893;BME280;4985;49.092;8.542;2023-04-19T11:01:55;99670.75;;;16.67;52.05
9893;BME280;4985;49.092;8.542;2023-04-19T11:04:56;99669.75;;;16.68;52.03
9893;BME280;4985;49.092;8.542;2023-04-19T11:07:11;99666.25;;;16.67;52.02
9893;BME280;4985;49.092;8.542;2023-04-19T11:09:39;99665.25;;;16.68;52.00
9893;BME280;4985;49.092;8.542;2023-04-19T11:12:10;99667.91;;;16.68;51.98
9893;BME280;4985;49.092;8.542;2023-04-19T11:14:39;99662.59;;;16.68;51.98
9893;BME280;4985;49.092;8.542;2023-04-19T11:17:15;99660.75;;;16.69;51.98
9893;BME280;4985;49.092;8.542;2023-04-19T11:19:42;99650.66;;;16.64;51.96
9893;BME280;4985;49.092;8.542;2023-04-19T11:22:10;99654.62;;;16.68;51.97
9893;BME280;4985;49.092;8.542;2023-04-19T11:24:36;99649.31;;;16.68;51.97
9893;BME280;4985;49.092;8.542;2023-04-19T11:27:07;99650.13;;;16.69;51.96
9893;BME280;4985;49.092;8.542;2023-04-19T11:29:33;99649.31;;;16.68;51.96
9893;BME280;4985;49.092;8.542;2023-04-19T11:32:00;99651.97;;;16.68;51.96
9893;BME280;4985;49.092;8.542;2023-04-19T11:34:28;99649.31;;;16.68;51.95
9893;BME280;4985;49.092;8.542;2023-04-19T11:36:54;99650.13;;;16.69;51.96
9893;BME280;4985;49.092;8.542;2023-04-19T11:39:21;99645.63;;;16.69;51.96
9893;BME280;4985;49.092;8.542;2023-04-19T11:41:47;99641.34;;;16.68;51.96
9893;BME280;4985;49.092;8.542;2023-04-19T11:44:15;99642.16;;;16.69;51.96
9893;BME280;4985;49.092;8.542;2023-04-19T11:46:56;99643.16;;;16.68;51.96
9893;BME280;4985;49.092;8.542;2023-04-19T11:49:28;99637.84;;;16.68;51.95
9893;BME280;4985;49.092;8.542;2023-04-19T11:51:57;99638.69;;;16.68;51.95
9893;BME280;4985;49.092;8.542;2023-04-19T11:54:24;99627.03;;;16.69;51.94
9893;BME280;4985;49.092;8.542;2023-04-19T11:56:59;99628.88;;;16.69;51.93
9893;BME280;4985;49.092;8.542;2023-04-19T11:59:26;99621.06;;;16.67;51.91
9893;BME280;4985;49.092;8.542;2023-04-19T12:01:53;99627.03;;;16.69;51.90
9893;BME280;4985;49.092;8.542;2023-04-19T12:04:20;99620.87;;;16.69;51.88
9893;BME280;4985;49.092;8.542;2023-04-19T12:06:57;99629.69;;;16.69;51.90
9893;BME280;4985;49.092;8.542;2023-04-19T12:09:24;99628.03;;;16.68;51.88
9893;BME280;4985;49.092;8.542;2023-04-19T12:11:51;99625.19;;;16.70;51.87
9893;BME280;4985;49.092;8.542;2023-04-19T12:14:18;99626.81;;;16.71;51.86
9893;BME280;4985;49.092;8.542;2023-04-19T12:17:04;99625.00;;;16.71;51.84
9893;BME280;4985;49.092;8.542;2023-04-19T12:19:34;99625.59;;;16.73;51.79
9893;BME280;4985;49.092;8.542;2023-04-19T12:22:09;99624.59;;;16.74;51.78
9893;BME280;4985;49.092;8.542;2023-04-19T12:24:36;99629.91;;;16.74;51.75
9893;BME280;4985;49.092;8.542;2023-04-19T12:27:03;99628.88;;;16.75;51.73
9893;BME280;4985;49.092;8.542;2023-04-19T12:29:30;99622.94;;;16.73;51.73
9893;BME280;4985;49.092;8.542;2023-04-19T12:31:56;99616.81;;;16.73;51.76
9893;BME280;4985;49.092;8.542;2023-04-19T12:34:23;99623.56;;;16.75;51.74
9893;BME280;4985;49.092;8.542;2023-04-19T12:36:49;99614.97;;;16.73;51.74
9893;BME280;4985;49.092;8.542;2023-04-19T12:39:17;99620.28;;;16.73;51.74
9893;BME280;4985;49.092;8.542;2023-04-19T12:41:44;99614.16;;;16.73;51.76
9893;BME280;4985;49.092;8.542;2023-04-19T12:44:12;99605.37;;;16.72;51.77
9893;BME280;4985;49.092;8.542;2023-04-19T12:46:39;99618.66;;;16.72;51.78
9893;BME280;4985;49.092;8.542;2023-04-19T12:49:05;99611.69;;;16.71;51.78
9893;BME280;4985;49.092;8.542;2023-04-19T12:51:32;99610.88;;;16.71;51.80
9893;BME280;4985;49.092;8.542;2023-04-19T12:54:00;99610.88;;;16.71;51.81
9893;BME280;4985;49.092;8.542;2023-04-19T12:56:28;99615.38;;;16.70;51.82
9893;BME280;4985;49.092;8.542;2023-04-19T12:58:54;99610.06;;;16.70;51.82
9893;BME280;4985;49.092;8.542;2023-04-19T13:01:21;99610.88;;;16.71;51.81
9893;BME280;4985;49.092;8.542;2023-04-19T13:03:47;99607.41;;;16.70;51.81
9893;BME280;4985;49.092;8.542;2023-04-19T13:06:14;99604.75;;;16.70;51.82
9893;BME280;4985;49.092;8.542;2023-04-19T13:08:41;99606.38;;;16.71;51.82
9893;BME280;4985;49.092;8.542;2023-04-19T13:11:08;99598.41;;;16.71;51.83
9893;BME280;4985;49.092;8.542;2023-04-19T13:13:35;99594.09;;;16.70;51.82
9893;BME280;4985;49.092;8.542;2023-04-19T13:16:02;99600.25;;;16.71;51.81
9893;BME280;4985;49.092;8.542;2023-04-19T13:18:30;99595.75;;;16.71;51.82
9893;BME280;4985;49.092;8.542;2023-04-19T13:20:56;99589.59;;;16.71;51.82
9893;BME280;4985;49.092;8.542;2023-04-19T13:23:23;99589.59;;;16.71;51.83
9893;BME280;4985;49.092;8.542;2023-04-19T13:25:50;99588.78;;;16.70;51.83